Jeffrey City, Wyoming
Current Conditions -  °F | °C
As of 8:15 PM on Monday 26 Jan 2015 (Local Time) from KFWZ Reporting Station
Clear Clear  
Wind Chill: 42°   Ceiling: Unl
Heat Index: 46°   Visibility: 10mi
Dew Point: 16°   Wind: 8mph
Humidity: 29%   Direction: 240°WSW
Pressure: 30.26"   Gusts: NA
Location:  42.49°N, 107.83°W
Report Text: KFWZ 270315Z AUTO 24007KT 10SM CLR 08/M09 A3026 RMK AO2
Loading
Personal Weather Stations






























Interactive Weather Map New forecast layout! Learn more

10-Day Weather Forecast

Advertisements
Track Severe Weather on mobile